Ana Sayfa
METAR-TAF:

METAR-TAF

Havaalanları :

Güvercinlik Havalimanı

Ankara Güvercinlik, Türkiye

Enlem: 39-56N, Boylam: 032-45E, yükseklik: 819 m

METAR: eksik

Saat: 09:48 (06:48 UTC)

Tahmin

Rapor saat 04:40 UTC de 2 saat ve 8 dakika önce yapıldı.
Ayın 25'si saat 06 UTC'den ayın 25'si saat 15 UTC'ye kadar geçerli Tahmin
Rüzgar kuzeybatıdan 8 kt
Görüş mesafesi 10 km veya daha fazla
4000 ft yükseklikte parçalı bulutlu
Dönüşüyor
ayın 25'si saat 06 UTC'den ayın 25'si saat 08 UTC'ye kadar
Görüş mesafesi 10 km veya daha fazla
1500 m altında bulut yok ve kümülonimbus yok

TAF: LTAB 250440Z 2506/2515 31008KT 9999 SCT040 BECMG 2506/2508 CAVOK

4.000'den fazla havaalanı için hava durumu gözlemleri ve tahminleri (METAR ve TAF raporları).

Kullanılabilir istasyonlar harita üzerinde sarı ve kırmızı noktalarla gösterilir.

İstasyonun adını görmek için fareyi noktanın üzerinde gezdirin.

Sonrasında hava gözlem ve tahminlerini görmek için tıklayın.

Haritayı değiştirmek için: yaklaştırmak için siyah artı işaretli yeşil düğmeye ve uzaklaştırmak için de eksi işaretli düğmeye hızla tıklayın; bitişik haritalar için yeşil okları kullanın.


METAR-TAF: